Time;durP1;ratioP1;P1;durP2;ratioP2;P2;SDS_P1;SDS_P2;PMS_P1;PMS_P2;Temp;Humidity;BMP_temperature;BMP_pressure;BME280_temperature;BME280_humidity;BME280_pressure;Samples;Min_cycle;Max_cycle;Signal;HPM_P1;HPM_P2
2021/10/08 00:00:13;;;;;;;87.30;8.82;;;;;;;;;;4976733;28;20372;-59
2021/10/08 00:02:40;;;;;;;103.38;10.13;;;;;;;;;;4963194;28;20978;-59
2021/10/08 00:05:05;;;;;;;46.92;8.57;;;;;;;;;;4960739;28;20027;-60
2021/10/08 00:07:30;;;;;;;99.30;9.52;;;;;;;;;;4947270;28;20163;-60
2021/10/08 00:09:59;;;;;;;56.10;9.23;;;;;;;;;;4962115;28;20042;-60
2021/10/08 00:12:27;;;;;;;54.47;8.43;;;;;;;;;;4959390;28;20948;-59
2021/10/08 00:14:52;;;;;;;19.58;8.45;;;;;;;;;;4961704;28;20030;-59
2021/10/08 00:17:18;;;;;;;36.42;8.93;;;;;;;;;;4949469;28;20125;-59
2021/10/08 00:19:46;;;;;;;40.95;9.05;;;;;;;;;;4963763;28;20035;-60
2021/10/08 00:22:11;;;;;;;67.00;8.18;;;;;;;;;;4960563;28;20038;-60
2021/10/08 00:24:37;;;;;;;39.83;9.60;;;;;;;;;;4963715;28;20058;-60
2021/10/08 00:27:03;;;;;;;78.97;9.60;;;;;;;;;;4977534;28;20034;-60
2021/10/08 00:29:29;;;;;;;104.25;9.70;;;;;;;;;;4962955;28;20031;-58
2021/10/08 00:31:54;;;;;;;78.57;9.05;;;;;;;;;;4965601;28;20171;-59
2021/10/08 00:34:22;;;;;;;37.17;8.48;;;;;;;;;;4961187;28;20153;-61
2021/10/08 00:36:47;;;;;;;35.92;8.18;;;;;;;;;;4961481;28;20438;-61
2021/10/08 00:39:18;;;;;;;27.40;7.78;;;;;;;;;;4993909;28;20034;-60
2021/10/08 00:41:48;;;;;;;36.13;8.75;;;;;;;;;;4964671;28;20081;-61
2021/10/08 00:44:17;;;;;;;30.52;8.13;;;;;;;;;;4971280;28;20035;-60
2021/10/08 00:46:44;;;;;;;63.88;8.82;;;;;;;;;;4977128;28;20034;-60
2021/10/08 00:49:10;;;;;;;56.55;8.57;;;;;;;;;;4962328;28;20038;-60
2021/10/08 00:51:40;;;;;;;56.13;7.95;;;;;;;;;;4960594;28;20038;-60
2021/10/08 00:54:06;;;;;;;63.38;9.20;;;;;;;;;;4961489;28;20178;-60
2021/10/08 00:56:35;;;;;;;64.38;8.48;;;;;;;;;;4961209;28;20035;-60
2021/10/08 00:59:03;;;;;;;29.45;8.43;;;;;;;;;;4959106;28;20231;-60
2021/10/08 01:01:31;;;;;;;65.60;8.57;;;;;;;;;;4959960;28;20143;-60
2021/10/08 01:03:58;;;;;;;53.35;8.57;;;;;;;;;;4979345;28;20061;-60
2021/10/08 01:06:24;;;;;;;53.50;8.93;;;;;;;;;;4980253;28;20028;-60
2021/10/08 01:08:53;;;;;;;65.72;9.25;;;;;;;;;;4999010;28;20046;-60
2021/10/08 01:11:24;;;;;;;61.70;8.65;;;;;;;;;;4961507;28;20056;-60
2021/10/08 01:13:51;;;;;;;44.40;8.02;;;;;;;;;;4977903;28;20066;-60
2021/10/08 01:16:22;;;;;;;42.63;8.43;;;;;;;;;;4962868;28;20030;-58
2021/10/08 01:18:47;;;;;;;43.63;8.65;;;;;;;;;;4966385;28;20102;-59
2021/10/08 01:21:15;;;;;;;77.57;9.05;;;;;;;;;;4963060;28;20642;-60
2021/10/08 01:23:44;;;;;;;41.17;8.68;;;;;;;;;;4965659;28;20031;-58
2021/10/08 01:26:09;;;;;;;61.80;9.75;;;;;;;;;;4978664;28;20049;-59
2021/10/08 01:28:35;;;;;;;57.45;8.82;;;;;;;;;;4964030;28;20494;-59
2021/10/08 01:31:01;;;;;;;52.55;8.65;;;;;;;;;;4967790;28;20040;-59
2021/10/08 01:33:27;;;;;;;62.45;10.10;;;;;;;;;;4967598;28;20133;-59
2021/10/08 01:35:54;;;;;;;41.80;9.20;;;;;;;;;;4968104;28;20120;-59
2021/10/08 01:38:23;;;;;;;57.58;8.48;;;;;;;;;;4964807;28;20117;-59
2021/10/08 01:40:48;;;;;;;61.53;8.82;;;;;;;;;;4962594;28;20073;-59
2021/10/08 01:43:18;;;;;;;88.82;9.45;;;;;;;;;;4979127;28;20616;-59
2021/10/08 01:45:48;;;;;;;38.65;8.70;;;;;;;;;;4964994;28;20116;-59
2021/10/08 01:48:14;;;;;;;103.53;9.55;;;;;;;;;;4964192;28;20034;-59
2021/10/08 01:50:44;;;;;;;63.78;9.15;;;;;;;;;;4967890;28;20053;-59
2021/10/08 01:53:12;;;;;;;78.55;9.80;;;;;;;;;;4980086;28;20089;-59
2021/10/08 01:55:40;;;;;;;54.00;8.82;;;;;;;;;;4965869;28;20065;-59
2021/10/08 01:58:05;;;;;;;75.78;9.30;;;;;;;;;;4980007;28;20425;-59
2021/10/08 02:00:36;;;;;;;74.35;9.23;;;;;;;;;;4948882;28;20038;-59
2021/10/08 02:03:04;;;;;;;61.72;9.88;;;;;;;;;;4964507;28;20034;-58
2021/10/08 02:05:32;;;;;;;53.97;8.13;;;;;;;;;;4946133;28;20363;-59
2021/10/08 02:08:00;;;;;;;58.60;8.63;;;;;;;;;;4962494;28;20031;-59
2021/10/08 02:10:28;;;;;;;59.20;9.27;;;;;;;;;;4964043;28;20038;-58
2021/10/08 02:13:00;;;;;;;58.20;8.25;;;;;;;;;;4978838;28;20062;-59
2021/10/08 02:15:36;;;;;;;52.65;8.40;;;;;;;;;;4979659;28;20047;-59
2021/10/08 02:18:04;;;;;;;56.50;9.73;;;;;;;;;;4966460;28;20026;-59
2021/10/08 02:20:31;;;;;;;64.85;9.48;;;;;;;;;;4962123;28;20061;-59
2021/10/08 02:22:57;;;;;;;32.05;8.57;;;;;;;;;;4946505;28;20616;-59
2021/10/08 02:25:25;;;;;;;56.42;9.98;;;;;;;;;;4963064;28;20030;-59
2021/10/08 02:27:51;;;;;;;33.85;8.40;;;;;;;;;;4965067;28;20261;-59
2021/10/08 02:30:17;;;;;;;22.90;8.35;;;;;;;;;;4962547;28;20026;-59
2021/10/08 02:32:45;;;;;;;23.73;7.75;;;;;;;;;;4979721;28;20030;-58
2021/10/08 02:35:13;;;;;;;30.08;7.97;;;;;;;;;;4976012;28;20027;-59
2021/10/08 02:37:46;;;;;;;14.98;7.30;;;;;;;;;;4962611;28;20030;-58
2021/10/08 02:40:14;;;;;;;24.48;7.90;;;;;;;;;;4978597;28;20041;-59
2021/10/08 02:42:42;;;;;;;40.17;7.35;;;;;;;;;;4959563;28;20045;-58
2021/10/08 02:45:15;;;;;;;39.35;7.90;;;;;;;;;;4964284;28;20117;-58
2021/10/08 02:47:43;;;;;;;30.58;8.07;;;;;;;;;;4980496;28;20142;-58
2021/10/08 02:50:11;;;;;;;42.63;8.68;;;;;;;;;;4947806;28;20109;-58
2021/10/08 02:52:38;;;;;;;54.17;8.80;;;;;;;;;;4979229;28;20034;-58
2021/10/08 02:55:05;;;;;;;15.98;8.30;;;;;;;;;;4977654;28;20041;-58
2021/10/08 02:57:32;;;;;;;17.75;8.00;;;;;;;;;;4995472;28;20030;-58
2021/10/08 02:59:58;;;;;;;47.33;9.43;;;;;;;;;;4962788;28;20141;-58
2021/10/08 03:02:23;;;;;;;41.22;9.15;;;;;;;;;;4978733;28;20039;-58
2021/10/08 03:04:52;;;;;;;28.80;9.18;;;;;;;;;;4964708;28;20121;-58
2021/10/08 03:07:17;;;;;;;34.83;8.55;;;;;;;;;;4975654;28;20034;-58
2021/10/08 03:09:47;;;;;;;31.38;8.68;;;;;;;;;;4962868;28;20115;-58
2021/10/08 03:12:13;;;;;;;42.78;9.82;;;;;;;;;;4963763;28;20054;-58
2021/10/08 03:14:43;;;;;;;40.90;8.85;;;;;;;;;;4978793;28;20104;-58
2021/10/08 03:17:08;;;;;;;24.77;9.27;;;;;;;;;;4977618;28;20798;-58
2021/10/08 03:19:36;;;;;;;33.63;9.27;;;;;;;;;;4964877;28;20081;-58
2021/10/08 03:22:02;;;;;;;32.95;9.38;;;;;;;;;;4961361;28;20445;-59
2021/10/08 03:24:28;;;;;;;69.45;9.82;;;;;;;;;;4977923;28;20022;-58
2021/10/08 03:26:56;;;;;;;45.60;10.15;;;;;;;;;;4964655;28;20084;-59
2021/10/08 03:29:21;;;;;;;54.13;10.38;;;;;;;;;;4962675;28;20022;-59
2021/10/08 03:31:49;;;;;;;50.42;9.27;;;;;;;;;;4975497;28;20042;-58
2021/10/08 03:34:22;;;;;;;86.25;10.18;;;;;;;;;;4962027;28;20093;-58
2021/10/08 03:36:53;;;;;;;69.43;9.68;;;;;;;;;;4980342;28;20038;-58
2021/10/08 03:39:22;;;;;;;92.22;9.85;;;;;;;;;;4963994;28;20042;-58
2021/10/08 03:41:48;;;;;;;62.40;11.10;;;;;;;;;;4963157;28;21014;-57
2021/10/08 03:44:18;;;;;;;50.85;10.20;;;;;;;;;;4958493;28;20022;-58
2021/10/08 03:46:51;;;;;;;63.17;10.25;;;;;;;;;;4977696;28;20026;-58
2021/10/08 03:49:17;;;;;;;64.88;10.10;;;;;;;;;;4962125;28;20609;-58
2021/10/08 03:51:45;;;;;;;46.75;8.82;;;;;;;;;;4957472;28;20121;-58
2021/10/08 03:54:13;;;;;;;32.40;8.30;;;;;;;;;;4978045;28;20097;-58
2021/10/08 03:56:41;;;;;;;53.45;9.20;;;;;;;;;;4978807;28;20157;-58
2021/10/08 03:59:09;;;;;;;49.28;9.93;;;;;;;;;;4960468;28;20075;-58
2021/10/08 04:01:35;;;;;;;55.17;9.55;;;;;;;;;;4946805;28;20962;-58
2021/10/08 04:04:04;;;;;;;32.17;9.60;;;;;;;;;;4961392;28;20034;-58
2021/10/08 04:06:35;;;;;;;49.05;8.93;;;;;;;;;;4963129;28;20030;-58
2021/10/08 04:09:02;;;;;;;40.45;8.88;;;;;;;;;;4962272;28;20369;-58
2021/10/08 04:11:30;;;;;;;54.92;10.13;;;;;;;;;;4974913;28;20493;-58
2021/10/08 04:13:56;;;;;;;42.53;9.02;;;;;;;;;;4946889;28;20050;-58
2021/10/08 04:16:24;;;;;;;61.78;9.63;;;;;;;;;;4946472;28;20042;-57
2021/10/08 04:18:49;;;;;;;27.05;8.50;;;;;;;;;;4962096;28;20529;-58
2021/10/08 04:21:20;;;;;;;25.23;9.50;;;;;;;;;;4978277;28;20510;-58
2021/10/08 04:23:45;;;;;;;33.60;8.80;;;;;;;;;;4978421;28;20035;-58
2021/10/08 04:26:18;;;;;;;40.35;8.40;;;;;;;;;;4962432;28;20453;-58
2021/10/08 04:28:44;;;;;;;39.75;9.15;;;;;;;;;;4961191;28;21251;-58
2021/10/08 04:31:12;;;;;;;36.55;8.95;;;;;;;;;;4977567;28;20039;-58
2021/10/08 04:33:37;;;;;;;25.80;8.25;;;;;;;;;;4976348;28;20089;-58
2021/10/08 04:36:03;;;;;;;29.83;8.60;;;;;;;;;;4978135;28;20990;-58
2021/10/08 04:38:32;;;;;;;48.22;8.13;;;;;;;;;;4966901;28;20200;-57
2021/10/08 04:40:58;;;;;;;28.17;8.73;;;;;;;;;;4964505;28;20701;-58
2021/10/08 04:43:26;;;;;;;37.65;8.65;;;;;;;;;;4964967;28;20072;-58
2021/10/08 04:45:54;;;;;;;21.60;8.30;;;;;;;;;;4963473;28;20093;-58
2021/10/08 04:48:22;;;;;;;18.08;7.78;;;;;;;;;;4951404;28;20062;-58
2021/10/08 04:50:48;;;;;;;31.67;8.48;;;;;;;;;;4966557;28;20031;-58
2021/10/08 04:53:16;;;;;;;23.25;8.70;;;;;;;;;;4964996;28;20046;-58
2021/10/08 04:55:43;;;;;;;19.58;7.80;;;;;;;;;;4965499;28;20084;-58
2021/10/08 04:58:09;;;;;;;19.02;7.38;;;;;;;;;;4947975;28;20092;-57
2021/10/08 05:00:35;;;;;;;34.63;8.68;;;;;;;;;;4980726;28;20034;-58
2021/10/08 05:03:05;;;;;;;60.38;16.25;;;;;;;;;;4964714;28;20092;-58
2021/10/08 05:05:31;;;;;;;32.30;10.20;;;;;;;;;;4966347;28;20050;-57
2021/10/08 05:07:58;;;;;;;42.20;9.52;;;;;;;;;;4981539;28;20651;-57
2021/10/08 05:10:24;;;;;;;53.85;9.23;;;;;;;;;;4965916;28;20729;-57
2021/10/08 05:12:52;;;;;;;39.50;8.95;;;;;;;;;;4931722;28;20045;-57
2021/10/08 05:15:17;;;;;;;44.55;9.45;;;;;;;;;;4932735;28;20112;-57
2021/10/08 05:17:43;;;;;;;52.40;9.77;;;;;;;;;;4950801;28;20035;-57
2021/10/08 05:20:09;;;;;;;39.17;13.07;;;;;;;;;;4965185;28;20070;-57
2021/10/08 05:22:37;;;;;;;33.42;9.65;;;;;;;;;;4952988;28;20125;-57
2021/10/08 05:25:03;;;;;;;47.90;15.27;;;;;;;;;;4964710;28;20034;-59
2021/10/08 05:27:28;;;;;;;49.47;10.82;;;;;;;;;;4964680;28;20065;-57
2021/10/08 05:29:54;;;;;;;39.55;9.57;;;;;;;;;;4950646;28;20083;-57
2021/10/08 05:32:19;;;;;;;53.58;10.45;;;;;;;;;;4963859;28;20636;-56
2021/10/08 05:34:47;;;;;;;89.03;10.95;;;;;;;;;;4950768;28;20043;-58
2021/10/08 05:37:13;;;;;;;91.00;11.48;;;;;;;;;;4944748;28;20504;-57
2021/10/08 05:39:44;;;;;;;41.05;9.57;;;;;;;;;;4962924;28;20043;-56
2021/10/08 05:42:12;;;;;;;54.83;9.60;;;;;;;;;;4948149;28;22069;-59
2021/10/08 05:44:38;;;;;;;43.67;9.68;;;;;;;;;;4962762;28;20414;-57
2021/10/08 05:47:08;;;;;;;62.75;11.43;;;;;;;;;;4945836;28;20045;-56
2021/10/08 05:49:34;;;;;;;70.18;11.93;;;;;;;;;;4949210;28;20040;-57
2021/10/08 05:52:02;;;;;;;127.38;13.20;;;;;;;;;;4962628;28;20034;-57
2021/10/08 05:54:27;;;;;;;122.10;14.20;;;;;;;;;;4949815;28;20034;-57
2021/10/08 05:56:53;;;;;;;126.38;14.30;;;;;;;;;;4948459;28;20765;-58
2021/10/08 05:59:18;;;;;;;72.22;13.65;;;;;;;;;;4962565;28;20121;-57
2021/10/08 06:01:48;;;;;;;50.75;10.95;;;;;;;;;;4950813;28;20790;-58
2021/10/08 06:04:17;;;;;;;62.88;9.70;;;;;;;;;;4963980;28;20486;-58
2021/10/08 06:06:45;;;;;;;46.58;13.35;;;;;;;;;;4945239;28;20176;-57
2021/10/08 06:09:13;;;;;;;99.72;13.48;;;;;;;;;;4963502;28;20038;-57
2021/10/08 06:11:38;;;;;;;90.60;13.35;;;;;;;;;;4953562;28;20136;-57
2021/10/08 06:14:09;;;;;;;116.47;12.18;;;;;;;;;;4978270;28;20046;-57
2021/10/08 06:16:36;;;;;;;102.32;12.98;;;;;;;;;;4964687;28;20034;-57
2021/10/08 06:19:05;;;;;;;98.57;12.80;;;;;;;;;;4978574;28;20037;-57
2021/10/08 06:21:35;;;;;;;64.22;12.63;;;;;;;;;;4967050;28;20406;-57
2021/10/08 06:24:01;;;;;;;114.10;13.18;;;;;;;;;;4979702;28;20137;-57
2021/10/08 06:26:29;;;;;;;98.05;13.85;;;;;;;;;;4979356;28;20030;-57
2021/10/08 06:28:57;;;;;;;78.43;12.57;;;;;;;;;;4964490;28;20072;-57
2021/10/08 06:31:22;;;;;;;32.28;12.30;;;;;;;;;;4979395;28;20490;-57
2021/10/08 06:33:58;;;;;;;40.75;12.10;;;;;;;;;;4963266;28;20039;-57
2021/10/08 06:36:26;;;;;;;37.13;12.82;;;;;;;;;;4978599;28;20034;-57
2021/10/08 06:38:53;;;;;;;76.07;13.18;;;;;;;;;;4963836;28;20034;-57
2021/10/08 06:41:19;;;;;;;48.97;11.43;;;;;;;;;;4979648;28;20034;-57
2021/10/08 06:43:47;;;;;;;37.95;12.88;;;;;;;;;;4963724;28;20040;-57
2021/10/08 06:46:16;;;;;;;52.40;14.00;;;;;;;;;;4977021;28;20050;-57
2021/10/08 06:48:41;;;;;;;46.95;14.32;;;;;;;;;;4949517;28;20062;-57
2021/10/08 06:51:16;;;;;;;31.90;12.25;;;;;;;;;;4966191;28;20038;-57
2021/10/08 06:53:42;;;;;;;35.03;13.30;;;;;;;;;;4964264;28;20625;-57
2021/10/08 06:56:08;;;;;;;22.27;10.15;;;;;;;;;;4979153;28;20026;-58
2021/10/08 06:58:34;;;;;;;33.33;10.20;;;;;;;;;;4963793;28;20046;-57
2021/10/08 07:01:01;;;;;;;55.20;10.55;;;;;;;;;;4962113;28;20053;-57
2021/10/08 07:03:27;;;;;;;43.47;10.00;;;;;;;;;;4978795;28;21014;-57
2021/10/08 07:05:52;;;;;;;37.25;11.05;;;;;;;;;;4963756;28;20034;-57
2021/10/08 07:08:20;;;;;;;21.60;9.15;;;;;;;;;;4978590;28;20030;-57
2021/10/08 07:10:48;;;;;;;26.15;6.63;;;;;;;;;;4964009;28;20043;-57
2021/10/08 07:13:17;;;;;;;31.63;6.35;;;;;;;;;;4962419;28;20114;-57
2021/10/08 07:15:45;;;;;;;16.98;5.75;;;;;;;;;;4966303;28;20034;-57
2021/10/08 07:18:16;;;;;;;18.65;5.60;;;;;;;;;;4981544;28;20037;-57
2021/10/08 07:20:44;;;;;;;35.72;6.55;;;;;;;;;;4966654;28;20038;-57
2021/10/08 07:23:09;;;;;;;37.88;6.97;;;;;;;;;;4964615;28;20034;-57
2021/10/08 07:25:35;;;;;;;25.75;6.45;;;;;;;;;;4977833;28;20034;-57
2021/10/08 07:28:03;;;;;;;40.17;7.40;;;;;;;;;;4964235;28;20038;-57
2021/10/08 07:30:31;;;;;;;35.72;7.35;;;;;;;;;;4980270;28;20149;-57
2021/10/08 07:32:59;;;;;;;66.85;7.25;;;;;;;;;;4978348;28;20031;-57
2021/10/08 07:35:24;;;;;;;53.05;7.63;;;;;;;;;;4980447;28;20108;-58
2021/10/08 07:37:50;;;;;;;93.57;7.70;;;;;;;;;;4964272;28;20486;-57
2021/10/08 07:40:18;;;;;;;78.25;7.40;;;;;;;;;;4978536;28;20068;-57
2021/10/08 07:42:43;;;;;;;32.35;7.60;;;;;;;;;;4949449;28;22308;-57
2021/10/08 07:45:10;;;;;;;46.63;7.28;;;;;;;;;;4963421;28;20093;-57
2021/10/08 07:47:39;;;;;;;28.17;6.97;;;;;;;;;;4960098;28;20018;-57
2021/10/08 07:50:08;;;;;;;17.20;7.20;;;;;;;;;;4978161;28;20030;-57
2021/10/08 07:52:33;;;;;;;12.02;6.30;;;;;;;;;;4965473;28;20030;-57
2021/10/08 07:55:03;;;;;;;10.63;5.47;;;;;;;;;;4963204;28;20603;-57
2021/10/08 07:57:29;;;;;;;10.77;5.72;;;;;;;;;;4960716;28;20097;-58
2021/10/08 07:59:56;;;;;;;9.88;5.75;;;;;;;;;;4966106;28;20486;-58
2021/10/08 08:02:23;;;;;;;8.55;5.18;;;;;;;;;;4977740;28;20417;-57
2021/10/08 08:04:53;;;;;;;10.77;6.05;;;;;;;;;;4958619;28;20041;-58
2021/10/08 08:07:21;;;;;;;9.45;5.65;;;;;;;;;;4961362;28;20038;-58
2021/10/08 08:09:46;;;;;;;12.38;6.82;;;;;;;;;;4963472;28;20022;-58
2021/10/08 08:12:12;;;;;;;11.88;6.82;;;;;;;;;;4961220;28;20057;-58
2021/10/08 08:14:40;;;;;;;10.57;5.70;;;;;;;;;;4966301;28;20441;-58
2021/10/08 08:17:05;;;;;;;12.63;5.93;;;;;;;;;;4965935;28;20034;-58
2021/10/08 08:19:33;;;;;;;10.63;6.90;;;;;;;;;;4981871;28;20073;-58
2021/10/08 08:22:01;;;;;;;15.73;8.68;;;;;;;;;;4980735;28;20073;-58
2021/10/08 08:24:30;;;;;;;18.17;9.70;;;;;;;;;;4968537;28;21219;-58
2021/10/08 08:26:57;;;;;;;20.92;8.10;;;;;;;;;;4981867;28;20035;-58
2021/10/08 08:29:28;;;;;;;13.40;7.55;;;;;;;;;;4966417;28;20034;-58
2021/10/08 08:31:55;;;;;;;14.38;8.50;;;;;;;;;;4980957;28;20133;-58
2021/10/08 08:34:22;;;;;;;16.95;8.77;;;;;;;;;;4983605;28;20030;-58
2021/10/08 08:36:48;;;;;;;13.32;8.40;;;;;;;;;;4965678;28;20035;-58
2021/10/08 08:39:18;;;;;;;17.35;9.07;;;;;;;;;;4952237;28;20092;-59
2021/10/08 08:41:46;;;;;;;17.48;10.43;;;;;;;;;;4965086;28;20046;-59
2021/10/08 08:44:12;;;;;;;18.20;11.10;;;;;;;;;;4961290;28;20042;-58
2021/10/08 08:46:40;;;;;;;21.25;11.55;;;;;;;;;;4952898;28;20502;-59
2021/10/08 08:49:05;;;;;;;27.45;13.30;;;;;;;;;;4961981;28;20217;-59
2021/10/08 08:51:36;;;;;;;26.10;12.00;;;;;;;;;;4967743;28;20053;-59
2021/10/08 08:54:06;;;;;;;21.58;12.30;;;;;;;;;;4980123;28;20080;-58
2021/10/08 08:56:32;;;;;;;19.45;11.93;;;;;;;;;;4965758;28;20034;-59
2021/10/08 08:59:04;;;;;;;26.88;13.00;;;;;;;;;;4947499;28;20041;-59
2021/10/08 09:01:30;;;;;;;25.13;12.80;;;;;;;;;;4980128;28;20525;-59
2021/10/08 09:04:18;;;;;;;21.67;12.90;;;;;;;;;;4980761;28;20031;-59
2021/10/08 09:06:46;;;;;;;22.17;11.13;;;;;;;;;;4964121;28;20027;-59
2021/10/08 09:09:15;;;;;;;22.30;13.23;;;;;;;;;;4980700;28;20053;-59
2021/10/08 09:11:44;;;;;;;20.70;11.80;;;;;;;;;;4979202;28;20158;-59
2021/10/08 09:14:15;;;;;;;19.55;10.95;;;;;;;;;;4963384;28;20026;-59
2021/10/08 09:17:01;;;;;;;20.23;11.32;;;;;;;;;;4965673;28;20137;-59
2021/10/08 09:19:43;;;;;;;19.05;11.35;;;;;;;;;;4965352;28;20038;-59
2021/10/08 09:22:09;;;;;;;21.65;11.75;;;;;;;;;;4977282;28;20770;-59
2021/10/08 09:24:34;;;;;;;21.33;11.57;;;;;;;;;;4963613;28;20876;-59
2021/10/08 09:27:20;;;;;;;19.70;10.70;;;;;;;;;;4978759;28;20034;-59
2021/10/08 09:29:50;;;;;;;21.35;11.38;;;;;;;;;;4963501;28;20157;-59
2021/10/08 09:32:23;;;;;;;22.15;10.65;;;;;;;;;;4961478;28;20149;-59
2021/10/08 09:35:02;;;;;;;20.05;10.15;;;;;;;;;;4979597;28;20079;-59
2021/10/08 09:37:29;;;;;;;22.77;11.65;;;;;;;;;;4979387;28;20035;-59
2021/10/08 09:39:59;;;;;;;21.25;10.50;;;;;;;;;;4962273;28;20031;-59
2021/10/08 09:42:32;;;;;;;15.82;9.45;;;;;;;;;;4962985;28;20050;-59
2021/10/08 09:44:58;;;;;;;23.08;9.60;;;;;;;;;;4979661;28;20034;-59
2021/10/08 09:47:28;;;;;;;17.33;9.50;;;;;;;;;;4980119;28;20999;-59
2021/10/08 09:50:14;;;;;;;14.88;8.75;;;;;;;;;;4978708;28;20058;-59
2021/10/08 09:52:40;;;;;;;14.13;8.07;;;;;;;;;;4963562;28;20061;-59
2021/10/08 09:55:10;;;;;;;15.15;8.63;;;;;;;;;;4963140;28;20022;-59
2021/10/08 09:57:48;;;;;;;14.10;8.35;;;;;;;;;;4964719;28;20165;-59
2021/10/08 10:00:47;;;;;;;15.57;7.93;;;;;;;;;;4966280;28;20042;-59
2021/10/08 10:03:16;;;;;;;16.83;8.15;;;;;;;;;;4941753;28;20053;-59
2021/10/08 10:05:42;;;;;;;13.70;7.50;;;;;;;;;;4963112;28;20126;-59
2021/10/08 10:08:08;;;;;;;13.65;8.13;;;;;;;;;;4966648;28;20026;-57
2021/10/08 10:10:35;;;;;;;18.38;8.48;;;;;;;;;;4963273;28;20038;-58
2021/10/08 10:13:03;;;;;;;13.57;8.40;;;;;;;;;;4978855;28;20035;-59
2021/10/08 10:15:28;;;;;;;13.05;7.97;;;;;;;;;;4979664;28;20169;-58
2021/10/08 10:17:57;;;;;;;15.25;7.93;;;;;;;;;;4978841;28;20022;-59
2021/10/08 10:20:22;;;;;;;15.90;8.75;;;;;;;;;;4963152;28;20091;-58
2021/10/08 10:22:48;;;;;;;12.60;7.95;;;;;;;;;;4966009;28;20054;-59
2021/10/08 10:25:14;;;;;;;11.60;8.50;;;;;;;;;;4948569;28;20030;-59
2021/10/08 10:27:40;;;;;;;12.60;7.88;;;;;;;;;;4964323;28;20118;-60
2021/10/08 10:30:09;;;;;;;11.93;8.18;;;;;;;;;;4964255;28;20034;-60
2021/10/08 10:32:38;;;;;;;14.25;7.47;;;;;;;;;;4963442;28;20043;-59
2021/10/08 10:35:04;;;;;;;12.38;7.70;;;;;;;;;;4976407;28;20217;-59
2021/10/08 10:37:37;;;;;;;12.25;8.20;;;;;;;;;;4963721;28;20596;-59
2021/10/08 10:40:19;;;;;;;11.85;7.35;;;;;;;;;;4946270;28;20039;-58
2021/10/08 10:42:45;;;;;;;14.20;8.88;;;;;;;;;;4980174;28;20050;-59
2021/10/08 10:45:24;;;;;;;10.10;7.22;;;;;;;;;;4962687;28;20088;-58
2021/10/08 10:48:08;;;;;;;11.57;8.13;;;;;;;;;;4980075;28;20917;-59
2021/10/08 10:50:59;;;;;;;11.68;7.50;;;;;;;;;;4964373;28;20039;-59
2021/10/08 10:53:42;;;;;;;12.07;8.07;;;;;;;;;;4979144;28;20038;-59
2021/10/08 10:56:27;;;;;;;13.65;7.70;;;;;;;;;;4965175;28;20034;-59
2021/10/08 10:59:11;;;;;;;12.32;7.82;;;;;;;;;;4980061;28;20478;-59
2021/10/08 11:02:03;;;;;;;11.88;7.68;;;;;;;;;;4978849;28;20501;-59
2021/10/08 11:04:29;;;;;;;12.57;7.90;;;;;;;;;;4949054;28;20064;-59
2021/10/08 11:07:04;;;;;;;12.38;7.80;;;;;;;;;;4959505;28;20464;-60
2021/10/08 11:09:29;;;;;;;14.38;8.60;;;;;;;;;;4963114;28;20089;-60
2021/10/08 11:12:14;;;;;;;13.27;7.68;;;;;;;;;;4958079;28;20058;-59
2021/10/08 11:14:42;;;;;;;11.38;7.57;;;;;;;;;;4977994;28;20031;-58
2021/10/08 11:17:28;;;;;;;10.43;7.28;;;;;;;;;;4946160;28;20059;-58
2021/10/08 11:19:57;;;;;;;10.52;7.40;;;;;;;;;;4977926;28;20036;-59
2021/10/08 11:22:42;;;;;;;10.73;7.13;;;;;;;;;;4960862;28;20034;-59
2021/10/08 11:25:07;;;;;;;10.80;7.18;;;;;;;;;;4965505;28;20670;-59
2021/10/08 11:27:35;;;;;;;11.02;6.38;;;;;;;;;;4959236;28;20481;-60
2021/10/08 11:30:03;;;;;;;11.95;6.53;;;;;;;;;;4962987;28;20042;-59
2021/10/08 11:32:30;;;;;;;10.02;6.25;;;;;;;;;;4964171;28;20043;-60
2021/10/08 11:34:58;;;;;;;9.30;6.25;;;;;;;;;;4980471;28;20039;-59
2021/10/08 11:37:24;;;;;;;9.98;7.00;;;;;;;;;;4963459;28;20037;-60
2021/10/08 11:39:50;;;;;;;10.32;7.10;;;;;;;;;;4965436;28;20487;-59
2021/10/08 11:42:20;;;;;;;12.10;7.35;;;;;;;;;;4960268;28;20032;-60
2021/10/08 11:45:12;;;;;;;12.02;6.38;;;;;;;;;;4963999;28;20437;-60
2021/10/08 11:47:53;;;;;;;8.15;5.88;;;;;;;;;;4961144;28;21110;-60
2021/10/08 11:53:02;;;;;;;;;;;;;;;;;;4973152;28;20130;-60
2021/10/08 11:55:38;;;;;;;6.30;4.80;;;;;;;;;;4962147;28;19972;-60
2021/10/08 11:58:11;;;;;;;8.48;5.45;;;;;;;;;;4977206;28;20034;-59
2021/10/08 12:00:44;;;;;;;8.77;4.80;;;;;;;;;;4963608;28;20084;-59
2021/10/08 12:03:11;;;;;;;6.37;4.57;;;;;;;;;;4966517;28;20037;-60
2021/10/08 12:05:43;;;;;;;8.13;4.68;;;;;;;;;;4962772;28;20936;-60
2021/10/08 12:08:11;;;;;;;6.82;4.40;;;;;;;;;;4978556;28;20030;-60
2021/10/08 12:10:36;;;;;;;7.70;4.45;;;;;;;;;;4946070;28;20034;-60
2021/10/08 12:13:02;;;;;;;5.75;4.13;;;;;;;;;;4975850;28;20046;-59
2021/10/08 12:15:31;;;;;;;5.10;3.50;;;;;;;;;;4960523;28;22468;-60
2021/10/08 12:17:57;;;;;;;5.95;3.92;;;;;;;;;;4963558;28;20100;-60
2021/10/08 12:20:35;;;;;;;5.45;4.03;;;;;;;;;;4963061;28;20022;-59
2021/10/08 12:23:21;;;;;;;7.15;3.92;;;;;;;;;;4977704;28;20025;-60
2021/10/08 12:25:48;;;;;;;4.82;3.33;;;;;;;;;;4962262;28;20616;-60
2021/10/08 12:28:17;;;;;;;5.88;2.90;;;;;;;;;;4959887;28;20096;-60
2021/10/08 12:30:50;;;;;;;4.70;3.30;;;;;;;;;;4961699;28;20038;-60
2021/10/08 12:33:42;;;;;;;5.40;3.65;;;;;;;;;;4964184;28;20043;-59
2021/10/08 12:36:12;;;;;;;6.05;4.30;;;;;;;;;;4958768;28;20066;-60
2021/10/08 12:38:58;;;;;;;4.55;3.92;;;;;;;;;;4978584;28;20026;-60
2021/10/08 12:41:32;;;;;;;4.90;4.32;;;;;;;;;;4976959;28;20127;-60
2021/10/08 12:44:05;;;;;;;4.68;4.13;;;;;;;;;;4976855;28;20027;-60
2021/10/08 12:46:35;;;;;;;6.07;4.25;;;;;;;;;;4961739;28;20042;-60
2021/10/08 12:49:01;;;;;;;6.90;3.63;;;;;;;;;;4978573;28;20124;-60
2021/10/08 12:51:27;;;;;;;4.82;3.45;;;;;;;;;;4960227;28;20030;-60
2021/10/08 12:54:18;;;;;;;4.78;3.08;;;;;;;;;;4974813;28;20038;-60
2021/10/08 12:56:46;;;;;;;3.03;2.53;;;;;;;;;;4978014;28;20114;-60
2021/10/08 12:59:13;;;;;;;3.40;2.70;;;;;;;;;;4979006;28;20069;-60
2021/10/08 13:01:56;;;;;;;5.22;2.60;;;;;;;;;;4979995;28;20031;-61
2021/10/08 13:04:22;;;;;;;3.60;2.47;;;;;;;;;;4981239;28;20125;-60
2021/10/08 13:06:50;;;;;;;3.75;2.65;;;;;;;;;;4981800;28;20030;-60
2021/10/08 13:09:22;;;;;;;3.28;2.42;;;;;;;;;;4953184;28;20894;-60
2021/10/08 13:11:49;;;;;;;3.30;2.28;;;;;;;;;;4964571;28;20038;-61
2021/10/08 13:14:25;;;;;;;3.78;2.22;;;;;;;;;;4964741;28;20687;-61
2021/10/08 13:16:52;;;;;;;3.40;2.30;;;;;;;;;;4964890;28;20032;-60
2021/10/08 13:19:31;;;;;;;3.85;2.58;;;;;;;;;;4966993;28;20018;-60
2021/10/08 13:22:00;;;;;;;7.50;2.92;;;;;;;;;;4965563;28;20046;-60
2021/10/08 13:24:26;;;;;;;3.33;2.75;;;;;;;;;;4966067;28;20026;-59
2021/10/08 13:26:52;;;;;;;3.85;3.17;;;;;;;;;;4980118;28;20118;-59
2021/10/08 13:29:20;;;;;;;4.25;3.22;;;;;;;;;;4979216;28;20022;-58
2021/10/08 13:31:45;;;;;;;8.13;3.30;;;;;;;;;;4964944;28;20088;-60
2021/10/08 13:34:11;;;;;;;5.75;3.15;;;;;;;;;;4965119;28;20030;-60
2021/10/08 13:36:36;;;;;;;4.25;3.13;;;;;;;;;;4963101;28;20038;-59
2021/10/08 13:39:03;;;;;;;3.92;3.47;;;;;;;;;;4968129;28;20066;-59
2021/10/08 13:41:29;;;;;;;5.50;3.00;;;;;;;;;;4965012;28;20146;-59
2021/10/08 13:43:57;;;;;;;6.47;3.10;;;;;;;;;;4979764;28;20034;-59
2021/10/08 13:46:23;;;;;;;4.28;3.17;;;;;;;;;;4965383;28;20111;-60
2021/10/08 13:48:49;;;;;;;3.75;3.35;;;;;;;;;;4980209;28;20391;-60
2021/10/08 13:51:17;;;;;;;4.63;3.13;;;;;;;;;;4963310;28;20179;-60
2021/10/08 13:53:44;;;;;;;5.13;3.20;;;;;;;;;;4964459;28;20070;-59
2021/10/08 13:56:12;;;;;;;4.13;2.85;;;;;;;;;;4961598;28;20035;-59
2021/10/08 13:58:38;;;;;;;4.38;3.13;;;;;;;;;;4979682;28;20121;-59
2021/10/08 14:01:06;;;;;;;4.80;3.30;;;;;;;;;;4947981;28;20038;-59
2021/10/08 14:11:31;;;;;;;5.50;3.33;;;;;;;;;;4933424;28;20100;-60
2021/10/08 14:13:59;;;;;;;7.18;4.10;;;;;;;;;;4979387;28;20030;-60
2021/10/08 14:16:30;;;;;;;8.45;4.53;;;;;;;;;;4979561;28;20170;-58
2021/10/08 14:18:58;;;;;;;7.35;4.47;;;;;;;;;;4964749;28;20077;-59
2021/10/08 14:21:24;;;;;;;9.80;5.00;;;;;;;;;;4979557;28;20505;-59
2021/10/08 14:23:57;;;;;;;7.03;4.47;;;;;;;;;;4962991;28;20771;-58
2021/10/08 14:26:25;;;;;;;7.70;3.83;;;;;;;;;;4964169;28;20453;-59
2021/10/08 14:28:50;;;;;;;11.90;4.30;;;;;;;;;;4965066;28;20030;-58
2021/10/08 14:31:16;;;;;;;8.07;4.05;;;;;;;;;;4980331;28;20990;-59
2021/10/08 14:33:46;;;;;;;6.35;4.18;;;;;;;;;;4962416;28;21885;-59
2021/10/08 14:36:14;;;;;;;5.00;3.45;;;;;;;;;;4964257;28;20045;-59
2021/10/08 14:38:44;;;;;;;8.05;4.30;;;;;;;;;;4948282;28;20529;-59
2021/10/08 14:41:10;;;;;;;5.50;3.83;;;;;;;;;;4964842;28;20076;-59
2021/10/08 14:43:37;;;;;;;7.50;4.30;;;;;;;;;;4950140;28;20077;-59
2021/10/08 14:46:06;;;;;;;7.25;3.63;;;;;;;;;;4978964;28;20066;-59
2021/10/08 14:48:35;;;;;;;8.57;3.70;;;;;;;;;;4962754;28;20026;-59
2021/10/08 14:51:01;;;;;;;5.88;3.28;;;;;;;;;;4979654;28;20043;-59